createdAt,value
2022-12-19T00:01:03.487Z,20.20
2022-12-19T00:03:30.380Z,20.73
2022-12-19T00:06:00.737Z,16.45
2022-12-19T00:08:29.250Z,19.02
2022-12-19T00:10:58.936Z,18.85
2022-12-19T00:13:27.116Z,18.67
2022-12-19T00:15:56.061Z,19.77
2022-12-19T00:18:22.857Z,18.58
2022-12-19T00:20:58.084Z,15.95
2022-12-19T00:23:25.269Z,16.08
2022-12-19T00:25:53.727Z,20.05
2022-12-19T00:28:20.708Z,17.45
2022-12-19T00:30:48.311Z,15.52
2022-12-19T00:33:15.295Z,15.90
2022-12-19T00:35:42.019Z,17.27
2022-12-19T00:38:08.951Z,22.48
2022-12-19T00:40:35.710Z,18.27
2022-12-19T00:43:03.867Z,20.02
2022-12-19T00:45:30.666Z,23.00
2022-12-19T00:47:57.874Z,21.38
2022-12-19T00:50:24.706Z,22.63
2022-12-19T00:52:51.649Z,22.02
2022-12-19T00:55:19.364Z,19.10
2022-12-19T00:57:46.797Z,17.90
2022-12-19T01:00:17.483Z,19.23
2022-12-19T01:02:45.247Z,21.75
2022-12-19T01:05:12.200Z,19.48
2022-12-19T01:07:38.986Z,26.20
2022-12-19T01:10:07.116Z,24.67
2022-12-19T01:12:45.961Z,22.08
2022-12-19T01:15:16.100Z,23.23
2022-12-19T01:17:44.566Z,22.45
2022-12-19T01:20:12.860Z,17.50
2022-12-19T01:22:39.651Z,17.23
2022-12-19T01:25:07.178Z,15.18
2022-12-19T01:27:34.063Z,22.33
2022-12-19T01:30:00.904Z,16.98
2022-12-19T01:32:29.047Z,14.98
2022-12-19T01:34:55.811Z,15.05
2022-12-19T01:37:22.660Z,17.40
2022-12-19T01:39:49.402Z,16.17
2022-12-19T01:42:20.266Z,14.75
2022-12-19T01:45:30.231Z,16.80
2022-12-19T01:48:13.938Z,17.75
2022-12-19T01:50:53.597Z,14.80
2022-12-19T01:53:31.572Z,16.33
2022-12-19T01:55:58.543Z,15.95
2022-12-19T01:58:25.847Z,16.40
2022-12-19T02:00:52.635Z,17.30
2022-12-19T02:03:26.886Z,16.60
2022-12-19T02:05:54.489Z,15.80
2022-12-19T02:08:23.335Z,17.20
2022-12-19T02:10:50.111Z,20.27
2022-12-19T02:13:17.850Z,16.02
2022-12-19T02:15:52.210Z,17.08
2022-12-19T02:18:33.278Z,18.13
2022-12-19T02:21:36.082Z,20.33
2022-12-19T02:24:27.633Z,20.00
2022-12-19T02:27:27.036Z,21.48
2022-12-19T02:30:14.144Z,17.52
2022-12-19T02:32:59.315Z,16.40
2022-12-19T02:35:32.236Z,23.60
2022-12-19T02:38:19.776Z,22.50
2022-12-19T02:40:53.004Z,20.80
2022-12-19T02:43:25.571Z,19.02
2022-12-19T02:45:53.833Z,22.08
2022-12-19T02:48:22.930Z,19.48
2022-12-19T02:50:50.568Z,17.60
2022-12-19T02:53:18.226Z,12.65
2022-12-19T02:56:10.439Z,14.02
2022-12-19T02:58:48.577Z,15.55
2022-12-19T03:01:29.474Z,17.95
2022-12-19T03:04:17.710Z,13.27
2022-12-19T03:06:55.360Z,13.57
2022-12-19T03:09:31.861Z,12.50
2022-12-19T03:12:06.743Z,14.63
2022-12-19T03:14:34.574Z,12.65
2022-12-19T03:17:04.731Z,15.55
2022-12-19T03:19:34.154Z,14.27
2022-12-19T03:22:01.371Z,15.05
2022-12-19T03:24:28.879Z,11.82
2022-12-19T03:27:01.579Z,14.20
2022-12-19T03:29:32.933Z,14.98
2022-12-19T03:32:03.415Z,15.93
2022-12-19T03:34:36.392Z,17.52
2022-12-19T03:37:05.418Z,19.58
2022-12-19T03:39:32.933Z,16.85
2022-12-19T03:42:20.291Z,17.67
2022-12-19T03:44:49.948Z,16.63
2022-12-19T03:47:22.284Z,13.65
2022-12-19T03:49:51.016Z,13.82
2022-12-19T03:52:27.262Z,14.02
2022-12-19T03:55:01.710Z,13.95
2022-12-19T03:57:32.704Z,17.20
2022-12-19T04:03:40.579Z,13.35
2022-12-19T04:06:10.126Z,15.63
2022-12-19T04:08:37.557Z,11.98
2022-12-19T04:11:10.208Z,13.75
2022-12-19T04:13:41.757Z,13.85
2022-12-19T04:16:15.326Z,12.57
2022-12-19T04:18:47.739Z,11.68
2022-12-19T04:21:21.723Z,13.10
2022-12-19T04:23:53.632Z,15.20
2022-12-19T04:26:22.519Z,9.82
2022-12-19T04:28:53.539Z,12.25
2022-12-19T04:31:21.258Z,11.82
2022-12-19T04:33:48.050Z,11.18
2022-12-19T04:36:16.405Z,11.50
2022-12-19T04:38:43.174Z,16.35
2022-12-19T04:41:09.975Z,10.93
2022-12-19T04:43:36.871Z,9.80
2022-12-19T04:46:03.677Z,11.82
2022-12-19T04:48:30.463Z,10.90
2022-12-19T04:50:57.174Z,11.30
2022-12-19T04:53:25.320Z,8.63
2022-12-19T04:56:00.269Z,9.45
2022-12-19T04:58:27.224Z,7.28
2022-12-19T05:00:54.083Z,7.80
2022-12-19T05:03:20.876Z,7.82
2022-12-19T05:05:47.557Z,8.93
2022-12-19T05:08:14.235Z,9.70
2022-12-19T05:10:42.239Z,8.95
2022-12-19T05:13:09.290Z,7.88
2022-12-19T05:15:35.977Z,6.20
2022-12-19T05:18:02.824Z,8.13
2022-12-19T05:20:29.550Z,6.97
2022-12-19T05:22:56.322Z,8.70
2022-12-19T05:25:23.000Z,7.55
2022-12-19T05:27:51.170Z,7.97
2022-12-19T05:30:18.081Z,8.20
2022-12-19T05:32:44.745Z,9.32
2022-12-19T05:35:11.447Z,6.80
2022-12-19T05:37:38.594Z,7.85
2022-12-19T05:40:06.394Z,6.47
2022-12-19T05:42:33.106Z,7.75
2022-12-19T05:45:01.161Z,10.73
2022-12-19T05:47:27.892Z,7.90
2022-12-19T05:49:54.568Z,7.72
2022-12-19T05:52:21.432Z,7.78
2022-12-19T05:54:48.209Z,9.05
2022-12-19T05:57:14.841Z,6.38
2022-12-19T05:59:41.723Z,7.50
2022-12-19T06:02:10.272Z,7.43
2022-12-19T06:04:37.095Z,6.80
2022-12-19T06:07:04.205Z,6.25
2022-12-19T06:09:31.172Z,7.63
2022-12-19T06:11:59.190Z,6.03
2022-12-19T06:14:25.954Z,6.60
2022-12-19T06:16:52.791Z,6.43
2022-12-19T06:19:21.153Z,6.72
2022-12-19T06:21:48.684Z,6.93
2022-12-19T06:24:16.124Z,7.57
2022-12-19T06:26:43.148Z,6.78
2022-12-19T06:29:12.606Z,6.20
2022-12-19T06:31:39.375Z,5.65
2022-12-19T06:34:10.194Z,5.38
2022-12-19T06:36:38.278Z,6.63
2022-12-19T06:39:05.094Z,6.10
2022-12-19T06:41:50.149Z,5.35
2022-12-19T06:44:17.776Z,5.97
2022-12-19T06:46:44.739Z,6.88
2022-12-19T06:49:11.906Z,6.88
2022-12-19T06:51:40.196Z,6.28
2022-12-19T06:54:06.955Z,6.47
2022-12-19T06:56:35.909Z,6.47
2022-12-19T06:59:02.846Z,5.55
2022-12-19T07:01:40.504Z,8.32
2022-12-19T07:04:11.478Z,6.63
2022-12-19T07:06:43.339Z,6.10
2022-12-19T07:09:12.731Z,6.25
2022-12-19T07:11:39.487Z,6.78
2022-12-19T07:14:06.361Z,5.55
2022-12-19T07:16:35.890Z,4.85
2022-12-19T07:19:02.636Z,5.32
2022-12-19T07:21:29.680Z,5.32
2022-12-19T07:23:58.888Z,6.63
2022-12-19T07:26:25.746Z,6.47
2022-12-19T07:28:53.637Z,6.68
2022-12-19T07:31:20.418Z,6.45
2022-12-19T07:33:47.092Z,5.47
2022-12-19T07:36:13.837Z,6.35
2022-12-19T07:38:40.610Z,6.82
2022-12-19T07:41:08.684Z,5.40
2022-12-19T07:43:35.370Z,6.30
2022-12-19T07:46:02.239Z,6.15
2022-12-19T07:48:31.024Z,5.03
2022-12-19T07:50:57.719Z,6.05
2022-12-19T07:53:24.637Z,6.10
2022-12-19T07:55:51.840Z,5.05
2022-12-19T07:58:19.946Z,5.03
2022-12-19T08:00:53.218Z,5.55
2022-12-19T08:03:20.046Z,4.68
2022-12-19T08:05:46.802Z,5.57
2022-12-19T08:08:13.515Z,4.75
2022-12-19T08:10:41.652Z,7.80
2022-12-19T08:13:09.019Z,4.40
2022-12-19T08:15:37.385Z,4.53
2022-12-19T08:18:04.498Z,5.05
2022-12-19T08:20:31.296Z,4.55
2022-12-19T08:22:57.995Z,5.60
2022-12-19T08:25:24.897Z,5.82
2022-12-19T08:27:51.694Z,5.72
2022-12-19T08:30:18.968Z,4.43
2022-12-19T08:32:48.010Z,5.80
2022-12-19T08:35:14.957Z,4.82
2022-12-19T08:37:43.929Z,6.22
2022-12-19T08:40:11.777Z,5.82
2022-12-19T08:42:38.468Z,6.35
2022-12-19T08:45:06.424Z,6.00
2022-12-19T08:47:33.119Z,3.90
2022-12-19T08:50:01.172Z,4.28
2022-12-19T08:52:27.790Z,5.20
2022-12-19T08:55:51.297Z,4.65
2022-12-19T08:58:17.947Z,4.25
2022-12-19T09:00:50.382Z,4.93
2022-12-19T09:03:23.485Z,4.57
2022-12-19T09:06:01.342Z,5.35
2022-12-19T09:08:35.705Z,5.03
2022-12-19T09:11:04.103Z,4.75
2022-12-19T09:13:32.303Z,4.13
2022-12-19T09:16:11.887Z,4.18
2022-12-19T09:18:42.630Z,4.43
2022-12-19T09:21:16.414Z,4.20
2022-12-19T09:23:48.490Z,7.13
2022-12-19T09:26:16.776Z,4.32
2022-12-19T09:28:47.794Z,4.75
2022-12-19T09:31:16.631Z,5.03
2022-12-19T09:33:44.220Z,4.53
2022-12-19T09:36:15.611Z,4.70
2022-12-19T09:38:43.326Z,5.38
2022-12-19T09:41:44.663Z,5.30
2022-12-19T09:44:23.236Z,4.38
2022-12-19T09:46:52.591Z,4.70
2022-12-19T09:49:23.106Z,6.75
2022-12-19T09:52:01.571Z,5.43
2022-12-19T09:54:36.544Z,5.82
2022-12-19T09:57:06.383Z,5.03
2022-12-19T09:59:47.733Z,6.03
2022-12-19T10:02:27.983Z,5.00
2022-12-19T10:05:30.446Z,3.38
2022-12-19T10:08:10.317Z,4.10
2022-12-19T10:12:39.793Z,6.60
2022-12-19T10:14:07.531Z,5.95
2022-12-19T10:16:52.152Z,4.25
2022-12-19T10:19:39.299Z,5.95
2022-12-19T10:22:19.471Z,5.68
2022-12-19T10:25:26.708Z,4.57
2022-12-19T10:28:02.148Z,4.45
2022-12-19T10:30:32.477Z,4.68
2022-12-19T10:33:20.299Z,4.88
2022-12-19T10:35:54.372Z,4.25
2022-12-19T10:38:26.860Z,4.88
2022-12-19T10:41:11.485Z,4.03
2022-12-19T10:43:49.543Z,5.15
2022-12-19T10:46:22.249Z,4.10
2022-12-19T10:48:53.019Z,5.63
2022-12-19T10:51:24.603Z,4.25
2022-12-19T10:53:55.474Z,4.82
2022-12-19T10:56:25.332Z,5.05
2022-12-19T10:59:00.055Z,3.97
2022-12-19T11:01:29.624Z,4.30
2022-12-19T11:04:15.558Z,4.90
2022-12-19T11:06:52.235Z,6.53
2022-12-19T11:09:25.562Z,4.93
2022-12-19T11:14:43.176Z,7.75
2022-12-19T11:22:06.766Z,5.72
2022-12-19T11:26:50.516Z,4.75
2022-12-19T11:29:30.357Z,4.53
2022-12-19T11:29:45.591Z,6.22
2022-12-19T11:29:54.355Z,4.07
2022-12-19T11:30:41.740Z,5.00
2022-12-19T11:34:27.553Z,4.85
2022-12-19T11:37:00.594Z,5.25
2022-12-19T11:39:35.401Z,5.50
2022-12-19T11:42:10.347Z,3.35
2022-12-19T11:44:44.747Z,3.70
2022-12-19T11:47:21.399Z,5.25
2022-12-19T11:49:53.719Z,4.97
2022-12-19T11:53:02.755Z,5.30
2022-12-19T11:55:20.423Z,5.35
2022-12-19T11:57:48.033Z,3.95
2022-12-19T12:00:20.881Z,3.80
2022-12-19T12:03:11.023Z,4.78
2022-12-19T12:05:46.670Z,4.88
2022-12-19T12:10:56.275Z,4.10
2022-12-19T12:15:52.092Z,5.53
2022-12-19T12:24:18.205Z,4.60
2022-12-19T12:31:26.566Z,4.88
2022-12-19T12:31:31.629Z,6.13
2022-12-19T12:31:54.267Z,6.28
2022-12-19T12:32:00.366Z,4.45
2022-12-19T12:35:16.387Z,4.07
2022-12-19T12:38:33.601Z,5.40
2022-12-19T12:41:19.455Z,4.22
2022-12-19T12:44:02.258Z,3.40
2022-12-19T12:46:34.972Z,3.80
2022-12-19T12:49:05.321Z,3.38
2022-12-19T12:51:33.767Z,4.82
2022-12-19T12:54:07.390Z,4.05
2022-12-19T12:56:35.474Z,4.22
2022-12-19T12:59:21.831Z,3.20
2022-12-19T13:01:54.522Z,4.03
2022-12-19T13:04:30.375Z,4.20
2022-12-19T13:07:27.033Z,4.38
2022-12-19T13:10:07.210Z,4.05
2022-12-19T13:12:52.313Z,5.10
2022-12-19T13:15:37.531Z,3.67
2022-12-19T13:18:32.169Z,4.85
2022-12-19T13:21:01.927Z,4.60
2022-12-19T13:23:46.423Z,4.28
2022-12-19T13:26:37.926Z,4.07
2022-12-19T13:29:43.280Z,3.17
2022-12-19T13:32:15.886Z,4.43
2022-12-19T13:35:01.751Z,3.53
2022-12-19T13:40:01.585Z,4.18
2022-12-19T13:40:34.248Z,4.63
2022-12-19T13:43:30.476Z,3.00
2022-12-19T13:46:00.684Z,3.15
2022-12-19T13:48:31.935Z,3.50
2022-12-19T13:51:03.465Z,4.45
2022-12-19T13:53:31.973Z,3.15
2022-12-19T13:56:01.574Z,3.95
2022-12-19T13:58:31.485Z,3.13
2022-12-19T14:01:02.698Z,3.35
2022-12-19T14:03:37.270Z,3.25
2022-12-19T14:06:19.704Z,3.60
2022-12-19T14:10:02.643Z,3.25
2022-12-19T14:13:39.879Z,3.63
2022-12-19T14:14:47.970Z,3.33
2022-12-19T14:17:16.789Z,3.30
2022-12-19T14:19:46.124Z,3.58
2022-12-19T14:22:25.341Z,3.33
2022-12-19T14:25:33.210Z,3.95
2022-12-19T14:28:24.935Z,2.92
2022-12-19T14:30:38.688Z,3.10
2022-12-19T14:33:47.020Z,3.25
2022-12-19T14:36:10.891Z,2.55
2022-12-19T14:39:26.700Z,2.97
2022-12-19T14:42:02.754Z,4.00
2022-12-19T14:52:11.614Z,4.13
2022-12-19T14:52:52.390Z,4.13
2022-12-19T14:54:22.085Z,4.78
2022-12-19T14:54:37.845Z,2.85
2022-12-19T14:56:28.138Z,3.17
2022-12-19T14:59:01.588Z,3.40
2022-12-19T15:01:30.960Z,3.17
2022-12-19T15:04:48.303Z,3.10
2022-12-19T15:07:07.429Z,3.10
2022-12-19T15:11:08.833Z,3.25
2022-12-19T15:14:46.713Z,3.30
2022-12-19T15:15:45.932Z,4.03
2022-12-19T15:18:26.139Z,3.72
2022-12-19T15:20:56.073Z,3.33
2022-12-19T15:23:24.457Z,4.80
2022-12-19T15:26:08.773Z,3.78
2022-12-19T15:28:41.752Z,3.47
2022-12-19T15:31:21.782Z,4.25
2022-12-19T15:34:23.374Z,4.43
2022-12-19T15:36:35.249Z,5.55
2022-12-19T15:39:02.021Z,3.40
2022-12-19T15:41:29.354Z,4.00
2022-12-19T15:44:05.144Z,5.35
2022-12-19T15:46:34.035Z,4.57
2022-12-19T15:49:02.388Z,3.72
2022-12-19T15:51:29.184Z,3.53
2022-12-19T15:54:09.033Z,3.35
2022-12-19T15:56:48.167Z,4.32
2022-12-19T15:59:24.601Z,2.53
2022-12-19T16:01:53.515Z,3.10
2022-12-19T16:04:21.029Z,3.65
2022-12-19T16:06:47.956Z,4.95
2022-12-19T16:09:20.829Z,3.75
2022-12-19T16:11:47.847Z,5.10
2022-12-19T16:14:15.020Z,3.38
2022-12-19T16:16:42.175Z,5.72
2022-12-19T16:19:24.802Z,3.10
2022-12-19T16:21:52.135Z,3.13
2022-12-19T16:24:18.895Z,4.15
2022-12-19T16:26:51.153Z,4.13
2022-12-19T16:29:20.139Z,3.17
2022-12-19T16:31:47.037Z,3.40
2022-12-19T16:34:16.544Z,3.58
2022-12-19T16:36:44.865Z,3.20
2022-12-19T16:39:12.592Z,2.50
2022-12-19T16:41:42.673Z,3.08
2022-12-19T16:44:19.229Z,3.65
2022-12-19T16:46:51.302Z,3.33
2022-12-19T16:49:35.789Z,2.78
2022-12-19T16:52:04.312Z,3.15
2022-12-19T16:54:31.331Z,2.72
2022-12-19T16:56:58.650Z,3.10
2022-12-19T16:59:30.806Z,3.67
2022-12-19T17:01:59.610Z,2.83
2022-12-19T17:04:28.718Z,3.20
2022-12-19T17:06:55.910Z,2.78
2022-12-19T17:09:25.492Z,3.67
2022-12-19T17:11:55.854Z,3.22
2022-12-19T17:14:24.887Z,2.80
2022-12-19T17:16:55.071Z,2.97
2022-12-19T17:19:24.335Z,2.78
2022-12-19T17:21:51.647Z,2.42
2022-12-19T17:24:18.912Z,2.45
2022-12-19T17:26:47.387Z,2.95
2022-12-19T17:29:14.166Z,3.42
2022-12-19T17:31:42.460Z,2.40
2022-12-19T17:34:21.757Z,3.58
2022-12-19T17:36:50.532Z,3.90
2022-12-19T17:39:19.967Z,3.15
2022-12-19T17:41:48.639Z,4.82
2022-12-19T17:44:15.503Z,3.38
2022-12-19T17:46:43.158Z,3.00
2022-12-19T17:49:16.652Z,4.57
2022-12-19T17:51:47.075Z,2.83
2022-12-19T17:54:13.792Z,2.50
2022-12-19T17:56:41.786Z,2.55
2022-12-19T17:59:10.071Z,2.50
2022-12-19T18:01:44.791Z,3.72
2022-12-19T18:04:14.656Z,3.15
2022-12-19T18:06:42.367Z,2.30
2022-12-19T18:09:18.245Z,2.95
2022-12-19T18:11:45.502Z,2.65
2022-12-19T18:14:13.912Z,4.00
2022-12-19T18:16:41.237Z,2.78
2022-12-19T18:19:17.347Z,3.28
2022-12-19T18:21:44.882Z,5.53
2022-12-19T18:24:12.675Z,3.55
2022-12-19T18:26:39.336Z,4.00
2022-12-19T18:29:09.772Z,3.97
2022-12-19T18:31:38.945Z,4.85
2022-12-19T18:34:08.185Z,5.03
2022-12-19T18:36:40.149Z,3.35
2022-12-19T18:39:20.881Z,4.00
2022-12-19T18:41:48.345Z,4.25
2022-12-19T18:44:15.068Z,3.63
2022-12-19T18:46:43.358Z,3.13
2022-12-19T18:49:13.484Z,2.50
2022-12-19T18:51:40.901Z,3.72
2022-12-19T18:54:15.029Z,3.17
2022-12-19T18:56:41.988Z,3.20
2022-12-19T18:59:09.123Z,3.13
2022-12-19T19:01:39.452Z,2.83
2022-12-19T19:04:09.095Z,2.40
2022-12-19T19:06:38.147Z,3.50
2022-12-19T19:09:14.522Z,4.00
2022-12-19T19:11:41.393Z,2.42
2022-12-19T19:14:08.578Z,4.13
2022-12-19T19:16:36.992Z,3.00
2022-12-19T19:19:10.164Z,3.45
2022-12-19T19:21:40.514Z,3.42
2022-12-19T19:24:10.647Z,3.40
2022-12-19T19:26:40.765Z,3.65
2022-12-19T19:29:17.418Z,3.00
2022-12-19T19:31:48.157Z,2.72
2022-12-19T19:34:21.869Z,3.03
2022-12-19T19:36:53.807Z,3.78
2022-12-19T19:39:23.885Z,3.90
2022-12-19T19:41:56.271Z,3.78
2022-12-19T19:44:23.174Z,3.70
2022-12-19T19:46:50.164Z,3.08
2022-12-19T19:49:19.800Z,5.53
2022-12-19T19:51:46.805Z,3.05
2022-12-19T19:54:13.709Z,3.45
2022-12-19T19:56:40.468Z,2.88
2022-12-19T19:59:08.543Z,2.67
2022-12-19T20:01:35.346Z,3.80
2022-12-19T20:04:02.930Z,1.60
2022-12-19T20:06:31.536Z,3.40
2022-12-19T20:08:58.575Z,3.55
2022-12-19T20:11:25.640Z,3.45
2022-12-19T20:13:52.428Z,2.53
2022-12-19T20:16:19.893Z,3.83
2022-12-19T20:18:48.557Z,3.03
2022-12-19T20:21:15.611Z,2.63
2022-12-19T20:23:44.252Z,2.47
2022-12-19T20:26:12.180Z,4.10
2022-12-19T20:28:47.416Z,2.58
2022-12-19T20:31:15.681Z,2.75
2022-12-19T20:33:42.490Z,2.10
2022-12-19T20:36:11.272Z,2.58
2022-12-19T20:38:38.483Z,2.78
2022-12-19T20:41:06.911Z,3.88
2022-12-19T20:43:34.232Z,3.38
2022-12-19T20:46:01.710Z,3.58
2022-12-19T20:48:28.643Z,2.47
2022-12-19T20:50:56.353Z,2.53
2022-12-19T20:53:23.217Z,3.03
2022-12-19T20:55:58.844Z,3.67
2022-12-19T20:58:27.816Z,2.95
2022-12-19T21:00:54.940Z,2.67
2022-12-19T21:03:29.107Z,3.72
2022-12-19T21:05:57.233Z,2.75
2022-12-19T21:08:25.057Z,2.67
2022-12-19T21:10:52.375Z,3.47
2022-12-19T21:13:19.489Z,4.07
2022-12-19T21:15:53.633Z,4.03
2022-12-19T21:18:20.453Z,2.83
2022-12-19T21:20:48.279Z,3.55
2022-12-19T21:23:15.312Z,2.63
2022-12-19T21:25:42.121Z,2.38
2022-12-19T21:28:09.167Z,3.55
2022-12-19T21:30:36.005Z,3.13
2022-12-19T21:33:04.689Z,2.92
2022-12-19T21:35:35.910Z,2.83
2022-12-19T21:38:05.341Z,2.47
2022-12-19T21:40:32.272Z,2.55
2022-12-19T21:42:59.125Z,3.53
2022-12-19T21:45:25.839Z,3.38
2022-12-19T21:47:52.619Z,3.25
2022-12-19T21:50:20.968Z,2.63
2022-12-19T21:52:52.757Z,3.25
2022-12-19T21:55:22.774Z,3.38
2022-12-19T21:57:49.514Z,2.90
2022-12-19T22:00:18.817Z,3.42
2022-12-19T22:03:12.126Z,3.20
2022-12-19T22:05:35.641Z,3.25
2022-12-19T22:08:02.334Z,2.58
2022-12-19T22:10:29.056Z,3.25
2022-12-19T22:12:55.796Z,2.72
2022-12-19T22:15:22.814Z,2.72
2022-12-19T22:17:49.737Z,3.03
2022-12-19T22:20:16.644Z,2.60
2022-12-19T22:22:44.773Z,3.58
2022-12-19T22:25:11.609Z,4.25
2022-12-19T22:27:38.657Z,9.50
2022-12-19T22:30:11.185Z,2.85
2022-12-19T22:32:38.174Z,3.05
2022-12-19T22:35:06.076Z,3.47
2022-12-19T22:37:35.395Z,2.88
2022-12-19T22:40:04.321Z,3.97
2022-12-19T22:42:31.038Z,2.42
2022-12-19T22:44:57.787Z,2.65
2022-12-19T22:47:24.453Z,2.17
2022-12-19T22:49:52.083Z,3.13
2022-12-19T22:52:18.767Z,2.53
2022-12-19T22:54:45.507Z,3.10
2022-12-19T22:57:13.532Z,3.33
2022-12-19T22:59:40.489Z,3.33
2022-12-19T23:02:07.708Z,2.85
2022-12-19T23:04:34.948Z,2.05
2022-12-19T23:07:02.626Z,2.38
2022-12-19T23:09:29.322Z,3.22
2022-12-19T23:11:56.007Z,3.38
2022-12-19T23:14:24.103Z,4.15
2022-12-19T23:16:51.179Z,2.90
2022-12-19T23:19:18.449Z,2.22
2022-12-19T23:21:45.535Z,4.05
2022-12-19T23:24:12.492Z,2.53
2022-12-19T23:26:39.511Z,2.45
2022-12-19T23:29:08.264Z,6.80
2022-12-19T23:31:38.635Z,3.53
2022-12-19T23:34:05.486Z,3.10
2022-12-19T23:37:08.869Z,2.40
2022-12-19T23:39:18.905Z,2.33
2022-12-19T23:41:45.615Z,2.70
2022-12-19T23:44:12.734Z,2.35
2022-12-19T23:46:40.908Z,2.00
2022-12-19T23:49:08.907Z,2.28
2022-12-19T23:51:39.937Z,2.47
2022-12-19T23:54:06.818Z,2.10
2022-12-19T23:56:33.581Z,2.97
2022-12-19T23:59:00.978Z,3.30
